createdAt,value
2023-02-14T00:00:52.326Z,1.70
2023-02-14T00:03:19.886Z,1.50
2023-02-14T00:05:49.273Z,1.54
2023-02-14T00:08:17.397Z,1.40
2023-02-14T00:10:44.858Z,1.58
2023-02-14T00:13:12.311Z,1.84
2023-02-14T00:15:38.805Z,1.80
2023-02-14T00:18:06.323Z,1.63
2023-02-14T00:20:33.754Z,1.59
2023-02-14T00:23:02.571Z,1.30
2023-02-14T00:25:30.046Z,1.22
2023-02-14T00:27:57.475Z,1.35
2023-02-14T00:30:25.003Z,1.36
2023-02-14T00:32:52.578Z,1.54
2023-02-14T00:35:20.168Z,1.27
2023-02-14T00:37:47.831Z,1.78
2023-02-14T00:40:16.771Z,1.70
2023-02-14T00:42:44.206Z,1.29
2023-02-14T00:45:11.664Z,1.77
2023-02-14T00:47:39.121Z,1.86
2023-02-14T00:50:07.312Z,1.40
2023-02-14T00:52:34.756Z,1.75
2023-02-14T00:55:02.209Z,1.48
2023-02-14T00:57:31.115Z,1.73
2023-02-14T00:59:58.527Z,1.60
2023-02-14T01:02:26.015Z,1.62
2023-02-14T01:04:53.461Z,1.13
2023-02-14T01:07:22.595Z,1.61
2023-02-14T01:09:49.907Z,1.72
2023-02-14T01:12:17.370Z,1.77
2023-02-14T01:14:46.130Z,1.75
2023-02-14T01:17:13.550Z,1.84
2023-02-14T01:19:42.343Z,1.75
2023-02-14T01:22:09.793Z,1.87
2023-02-14T01:24:37.268Z,1.87
2023-02-14T01:27:04.854Z,1.89
2023-02-14T01:29:32.295Z,1.77
2023-02-14T01:32:01.135Z,1.65
2023-02-14T01:34:28.704Z,1.50
2023-02-14T01:36:56.130Z,1.75
2023-02-14T01:39:23.817Z,1.28
2023-02-14T01:41:51.349Z,1.66
2023-02-14T01:45:00.602Z,1.82
2023-02-14T01:47:31.781Z,1.39
2023-02-14T01:50:03.939Z,1.15
2023-02-14T01:52:37.264Z,1.24
2023-02-14T01:55:09.078Z,1.68
2023-02-14T01:57:41.519Z,1.47
2023-02-14T02:00:28.414Z,1.41
2023-02-14T02:02:59.723Z,1.60
2023-02-14T02:05:28.149Z,1.67
2023-02-14T02:08:00.533Z,1.61
2023-02-14T02:10:28.005Z,1.82
2023-02-14T02:12:55.639Z,1.27
2023-02-14T02:15:27.296Z,1.39
2023-02-14T02:18:03.882Z,1.55
2023-02-14T02:20:54.065Z,1.07
2023-02-14T02:23:56.893Z,1.30
2023-02-14T02:27:08.684Z,1.43
2023-02-14T02:30:18.750Z,1.44
2023-02-14T02:33:29.174Z,1.73
2023-02-14T02:36:19.691Z,1.52
2023-02-14T02:39:05.147Z,1.21
2023-02-14T02:41:44.177Z,1.49
2023-02-14T02:44:17.240Z,1.41
2023-02-14T02:46:53.176Z,1.26
2023-02-14T02:49:56.116Z,1.33
2023-02-14T02:52:49.986Z,1.06
2023-02-14T02:55:25.522Z,1.56
2023-02-14T02:57:55.095Z,1.74
2023-02-14T03:00:24.779Z,1.43
2023-02-14T03:03:25.708Z,1.31
2023-02-14T03:05:53.206Z,1.49
2023-02-14T03:08:21.970Z,1.75
2023-02-14T03:10:49.488Z,1.55
2023-02-14T03:13:39.790Z,1.55
2023-02-14T03:16:26.929Z,1.43
2023-02-14T03:19:28.737Z,1.47
2023-02-14T03:22:02.423Z,1.11
2023-02-14T03:24:42.267Z,1.33
2023-02-14T03:27:16.213Z,1.20
2023-02-14T03:29:54.880Z,0.88
2023-02-14T03:32:30.606Z,0.74
2023-02-14T03:35:06.054Z,1.38
2023-02-14T03:37:40.335Z,1.45
2023-02-14T03:40:11.956Z,1.10
2023-02-14T03:42:43.474Z,1.36
2023-02-14T03:45:17.621Z,0.89
2023-02-14T03:47:47.873Z,1.37
2023-02-14T03:50:20.376Z,0.95
2023-02-14T03:52:51.520Z,1.20
2023-02-14T03:55:27.337Z,1.28
2023-02-14T03:58:00.404Z,1.48
2023-02-14T04:00:30.780Z,1.22
2023-02-14T04:03:05.707Z,0.94
2023-02-14T04:05:33.979Z,1.27
2023-02-14T04:08:01.597Z,1.21
2023-02-14T04:10:30.505Z,1.27
2023-02-14T04:12:57.964Z,0.65
2023-02-14T04:15:25.383Z,1.06
2023-02-14T04:18:10.651Z,0.59
2023-02-14T04:20:38.251Z,1.03
2023-02-14T04:23:05.718Z,0.88
2023-02-14T04:25:34.553Z,1.27
2023-02-14T04:28:02.025Z,1.32
2023-02-14T04:30:29.587Z,1.42
2023-02-14T04:32:57.052Z,0.53
2023-02-14T04:35:24.469Z,0.47
2023-02-14T04:37:51.921Z,1.36
2023-02-14T04:40:19.460Z,1.41
2023-02-14T04:42:48.468Z,1.19
2023-02-14T04:45:16.279Z,0.81
2023-02-14T04:47:43.724Z,1.17
2023-02-14T04:50:11.414Z,1.30
2023-02-14T04:52:39.231Z,0.80
2023-02-14T04:55:07.979Z,1.24
2023-02-14T04:57:35.492Z,0.86
2023-02-14T05:00:04.701Z,1.16
2023-02-14T05:02:32.206Z,1.43
2023-02-14T05:04:59.645Z,1.58
2023-02-14T05:07:27.350Z,1.13
2023-02-14T05:09:54.834Z,1.23
2023-02-14T05:12:22.263Z,1.20
2023-02-14T05:14:49.751Z,0.56
2023-02-14T05:17:18.570Z,1.24
2023-02-14T05:19:46.164Z,1.10
2023-02-14T05:22:13.623Z,1.30
2023-02-14T05:24:41.120Z,1.08
2023-02-14T05:27:11.499Z,0.62
2023-02-14T05:29:39.078Z,0.89
2023-02-14T05:32:06.608Z,0.93
2023-02-14T05:34:35.454Z,0.61
2023-02-14T05:37:03.546Z,0.69
2023-02-14T05:39:30.985Z,0.48
2023-02-14T05:41:59.392Z,0.47
2023-02-14T05:44:26.999Z,0.41
2023-02-14T05:46:54.785Z,0.58
2023-02-14T05:49:22.482Z,0.37
2023-02-14T05:51:51.351Z,0.51
2023-02-14T05:54:18.792Z,0.89
2023-02-14T05:56:46.282Z,1.03
2023-02-14T05:59:14.500Z,0.59
2023-02-14T06:01:42.038Z,0.80
2023-02-14T06:04:09.488Z,1.19
2023-02-14T06:06:36.944Z,1.32
2023-02-14T06:09:05.799Z,0.75
2023-02-14T06:11:33.261Z,1.29
2023-02-14T06:14:00.710Z,1.45
2023-02-14T06:16:28.190Z,1.18
2023-02-14T06:18:55.689Z,0.63
2023-02-14T06:21:23.272Z,0.75
2023-02-14T06:23:50.816Z,0.57
2023-02-14T06:26:19.671Z,0.89
2023-02-14T06:28:47.127Z,0.84
2023-02-14T06:31:18.248Z,0.75
2023-02-14T06:33:45.789Z,1.05
2023-02-14T06:36:13.307Z,0.56
2023-02-14T06:38:41.173Z,0.13
2023-02-14T06:41:10.369Z,1.08
2023-02-14T06:43:39.978Z,0.95
2023-02-14T06:46:07.745Z,0.28
2023-02-14T06:48:35.255Z,0.90
2023-02-14T06:51:03.053Z,0.79
2023-02-14T06:53:30.630Z,0.82
2023-02-14T06:55:58.115Z,0.81
2023-02-14T06:58:25.572Z,1.06
2023-02-14T07:00:55.619Z,1.05
2023-02-14T07:03:23.140Z,0.57
2023-02-14T07:05:50.603Z,0.87
2023-02-14T07:08:20.460Z,1.09
2023-02-14T07:10:47.956Z,1.03
2023-02-14T07:13:15.645Z,0.71
2023-02-14T07:15:43.281Z,0.57
2023-02-14T07:18:12.074Z,0.15
2023-02-14T07:20:39.579Z,0.58
2023-02-14T07:23:07.040Z,0.62
2023-02-14T07:25:34.513Z,1.11
2023-02-14T07:28:02.044Z,1.32
2023-02-14T07:30:29.582Z,1.27
2023-02-14T07:32:58.225Z,0.76
2023-02-14T07:35:27.035Z,0.67
2023-02-14T07:37:54.514Z,0.78
2023-02-14T07:40:22.156Z,0.69
2023-02-14T07:42:54.187Z,1.05
2023-02-14T07:45:22.375Z,0.42
2023-02-14T07:47:50.958Z,0.89
2023-02-14T07:50:18.798Z,0.82
2023-02-14T07:52:48.039Z,1.28
2023-02-14T07:55:16.243Z,1.22
2023-02-14T07:57:43.694Z,1.43
2023-02-14T08:00:11.842Z,1.37
2023-02-14T08:02:39.332Z,1.19
2023-02-14T08:05:07.777Z,1.17
2023-02-14T08:07:35.374Z,0.78
2023-02-14T08:10:04.387Z,0.61
2023-02-14T08:12:49.534Z,0.71
2023-02-14T08:15:34.843Z,0.55
2023-02-14T08:18:02.373Z,1.07
2023-02-14T08:20:29.926Z,0.74
2023-02-14T08:22:57.648Z,1.02
2023-02-14T08:25:26.488Z,0.72
2023-02-14T08:27:55.365Z,1.06
2023-02-14T08:30:24.321Z,0.82
2023-02-14T08:32:51.856Z,0.63
2023-02-14T08:35:19.565Z,1.05
2023-02-14T08:37:47.057Z,1.12
2023-02-14T08:40:14.582Z,0.55
2023-02-14T08:42:43.526Z,0.98
2023-02-14T08:45:11.216Z,0.65
2023-02-14T08:47:40.228Z,0.70
2023-02-14T08:50:09.848Z,0.66
2023-02-14T08:52:37.310Z,0.64
2023-02-14T08:55:05.072Z,0.59
2023-02-14T08:57:32.670Z,1.17
2023-02-14T09:00:01.610Z,0.93
2023-02-14T09:02:29.099Z,0.78
2023-02-14T09:04:56.598Z,1.04
2023-02-14T09:07:24.051Z,0.98
2023-02-14T09:09:51.503Z,0.84
2023-02-14T09:12:19.035Z,0.96
2023-02-14T09:14:46.591Z,0.80
2023-02-14T09:17:16.168Z,0.42
2023-02-14T09:19:44.091Z,0.46
2023-02-14T09:22:12.758Z,0.33
2023-02-14T09:24:41.298Z,0.50
2023-02-14T09:27:09.215Z,0.40
2023-02-14T09:29:36.671Z,0.69
2023-02-14T09:32:04.974Z,0.61
2023-02-14T09:34:52.629Z,0.73
2023-02-14T09:37:37.929Z,0.79
2023-02-14T09:40:06.355Z,0.76
2023-02-14T09:42:52.335Z,0.98
2023-02-14T09:45:25.273Z,0.46
2023-02-14T09:47:57.270Z,1.27
2023-02-14T09:50:31.178Z,1.44
2023-02-14T09:53:03.319Z,1.49
2023-02-14T09:55:39.776Z,1.53
2023-02-14T09:58:14.608Z,1.35
2023-02-14T10:00:47.121Z,1.48
2023-02-14T10:03:43.701Z,1.42
2023-02-14T10:06:27.751Z,1.39
2023-02-14T10:09:07.488Z,1.40
2023-02-14T10:11:35.599Z,1.58
2023-02-14T10:14:09.545Z,1.69
2023-02-14T10:16:41.079Z,1.57
2023-02-14T10:19:18.013Z,1.73
2023-02-14T10:21:54.607Z,1.46
2023-02-14T10:24:28.257Z,1.65
2023-02-14T10:26:59.224Z,1.63
2023-02-14T10:29:27.203Z,1.35
2023-02-14T10:32:00.295Z,1.16
2023-02-14T10:34:36.328Z,0.83
2023-02-14T10:37:22.387Z,1.29
2023-02-14T10:40:06.382Z,1.32
2023-02-14T10:42:43.974Z,1.60
2023-02-14T10:45:19.840Z,1.68
2023-02-14T10:47:56.255Z,1.63
2023-02-14T10:50:31.371Z,1.59
2023-02-14T10:53:10.706Z,0.97
2023-02-14T10:55:46.236Z,1.57
2023-02-14T10:58:17.441Z,1.43
2023-02-14T11:00:54.121Z,1.53
2023-02-14T11:03:21.613Z,1.51
2023-02-14T11:05:49.845Z,1.45
2023-02-14T11:08:25.791Z,1.09
2023-02-14T11:10:54.787Z,1.32
2023-02-14T11:13:29.628Z,1.00
2023-02-14T11:16:01.367Z,1.33
2023-02-14T11:18:32.694Z,1.10
2023-02-14T11:21:02.093Z,1.40
2023-02-14T11:23:34.831Z,1.24
2023-02-14T11:26:04.710Z,1.57
2023-02-14T11:28:32.541Z,1.36
2023-02-14T11:31:00.595Z,1.16
2023-02-14T11:33:39.885Z,1.53
2023-02-14T11:36:17.432Z,1.18
2023-02-14T11:38:55.445Z,1.03
2023-02-14T11:41:24.474Z,1.30
2023-02-14T11:43:53.071Z,1.49
2023-02-14T11:46:28.051Z,1.16
2023-02-14T11:48:59.024Z,1.35
2023-02-14T11:51:30.115Z,1.31
2023-02-14T11:54:04.610Z,1.52
2023-02-14T11:56:49.547Z,1.66
2023-02-14T11:59:27.238Z,1.75
2023-02-14T12:01:55.509Z,1.41
2023-02-14T12:04:30.761Z,1.46
2023-02-14T12:07:13.022Z,1.39
2023-02-14T12:09:43.138Z,1.48
2023-02-14T12:12:19.354Z,1.37
2023-02-14T12:14:47.008Z,1.77
2023-02-14T12:17:24.411Z,1.94
2023-02-14T12:19:56.471Z,1.69
2023-02-14T12:22:28.998Z,1.51
2023-02-14T12:25:06.956Z,1.96
2023-02-14T12:27:46.817Z,2.06
2023-02-14T12:30:18.141Z,2.07
2023-02-14T12:32:50.232Z,1.99
2023-02-14T12:35:19.397Z,1.92
2023-02-14T12:38:02.745Z,1.99
2023-02-14T12:40:47.657Z,2.07
2023-02-14T12:43:45.442Z,2.19
2023-02-14T12:46:29.360Z,2.03
2023-02-14T12:49:17.738Z,1.89
2023-02-14T12:51:56.891Z,1.83
2023-02-14T12:54:39.537Z,1.73
2023-02-14T12:57:19.796Z,1.93
2023-02-14T12:59:56.418Z,1.74
2023-02-14T13:02:46.023Z,1.87
2023-02-14T13:05:28.002Z,1.89
2023-02-14T13:08:13.812Z,1.98
2023-02-14T13:10:54.578Z,2.16
2023-02-14T13:13:33.946Z,1.89
2023-02-14T13:16:13.661Z,2.23
2023-02-14T13:18:50.619Z,2.22
2023-02-14T13:21:23.448Z,2.09
2023-02-14T13:23:54.963Z,2.02
2023-02-14T13:26:28.038Z,1.80
2023-02-14T13:29:03.904Z,1.82
2023-02-14T13:31:32.885Z,1.88
2023-02-14T13:34:04.161Z,2.29
2023-02-14T13:36:32.718Z,2.25
2023-02-14T13:39:01.345Z,2.39
2023-02-14T13:41:29.183Z,2.35
2023-02-14T13:44:01.326Z,2.33
2023-02-14T13:46:52.101Z,2.12
2023-02-14T13:49:30.491Z,2.41
2023-02-14T13:52:01.016Z,2.24
2023-02-14T13:54:33.035Z,2.27
2023-02-14T13:57:02.193Z,2.21
2023-02-14T13:59:32.883Z,2.46
2023-02-14T14:02:31.784Z,2.17
2023-02-14T14:04:59.302Z,2.45
2023-02-14T14:07:30.681Z,2.49
2023-02-14T14:10:03.103Z,2.34
2023-02-14T14:12:42.020Z,2.32
2023-02-14T14:15:18.350Z,2.09
2023-02-14T14:17:50.150Z,2.18
2023-02-14T14:20:48.869Z,2.33
2023-02-14T14:23:43.433Z,2.07
2023-02-14T14:26:36.048Z,2.16
2023-02-14T14:29:10.822Z,2.18
2023-02-14T14:31:42.294Z,2.44
2023-02-14T14:34:17.304Z,2.51
2023-02-14T14:36:44.844Z,2.54
2023-02-14T14:39:12.346Z,2.41
2023-02-14T14:41:41.131Z,2.51
2023-02-14T14:44:08.896Z,2.66
2023-02-14T14:46:36.429Z,2.45
2023-02-14T14:49:05.774Z,2.28
2023-02-14T14:51:36.480Z,2.49
2023-02-14T14:54:06.754Z,2.59
2023-02-14T14:56:37.970Z,2.56
2023-02-14T14:59:20.672Z,2.41
2023-02-14T15:01:48.212Z,2.55
2023-02-14T15:04:20.841Z,2.62
2023-02-14T15:06:49.640Z,2.75
2023-02-14T15:09:23.617Z,2.69
2023-02-14T15:12:11.293Z,2.67
2023-02-14T15:14:44.111Z,2.48
2023-02-14T15:17:19.623Z,2.48
2023-02-14T15:19:51.717Z,2.33
2023-02-14T15:22:21.197Z,2.27
2023-02-14T15:24:49.224Z,2.35
2023-02-14T15:27:19.113Z,2.33
2023-02-14T15:29:55.318Z,2.38
2023-02-14T15:32:23.973Z,2.48
2023-02-14T15:34:53.549Z,2.39
2023-02-14T15:37:23.070Z,2.49
2023-02-14T15:39:55.586Z,2.51
2023-02-14T15:42:27.560Z,2.51
2023-02-14T15:45:17.692Z,2.54
2023-02-14T15:47:47.958Z,2.48
2023-02-14T15:50:19.963Z,2.32
2023-02-14T15:52:48.906Z,2.34
2023-02-14T15:55:19.069Z,2.41
2023-02-14T15:57:54.462Z,2.43
2023-02-14T16:00:23.423Z,2.33
2023-02-14T16:02:54.321Z,2.34
2023-02-14T16:05:25.667Z,2.40
2023-02-14T16:07:58.021Z,2.24
2023-02-14T16:10:26.931Z,2.42
2023-02-14T16:13:00.652Z,2.33
2023-02-14T16:15:30.040Z,2.43
2023-02-14T16:17:57.543Z,2.44
2023-02-14T16:20:31.202Z,2.43
2023-02-14T16:23:23.961Z,2.29
2023-02-14T16:25:51.875Z,2.30
2023-02-14T16:28:19.657Z,2.25
2023-02-14T16:30:53.462Z,2.09
2023-02-14T16:33:23.217Z,2.14
2023-02-14T16:35:52.278Z,2.11
2023-02-14T16:38:20.624Z,2.28
2023-02-14T16:40:50.191Z,2.23
2023-02-14T16:43:18.792Z,2.25
2023-02-14T16:45:46.874Z,2.23
2023-02-14T16:48:16.534Z,2.15
2023-02-14T16:50:45.598Z,2.18
2023-02-14T16:53:18.542Z,2.10
2023-02-14T16:55:46.021Z,2.13
2023-02-14T16:58:15.063Z,2.09
2023-02-14T17:00:42.394Z,2.02
2023-02-14T17:03:11.388Z,1.96
2023-02-14T17:05:40.492Z,1.91
2023-02-14T17:08:10.064Z,1.93
2023-02-14T17:10:40.199Z,1.86
2023-02-14T17:13:08.876Z,1.82
2023-02-14T17:15:36.584Z,1.83
2023-02-14T17:18:08.938Z,1.84
2023-02-14T17:20:37.182Z,1.81
2023-02-14T17:23:04.683Z,1.81
2023-02-14T17:25:32.201Z,1.81
2023-02-14T17:28:01.363Z,1.78
2023-02-14T17:30:29.180Z,1.78
2023-02-14T17:32:56.694Z,1.76
2023-02-14T17:35:24.164Z,1.75
2023-02-14T17:37:51.594Z,1.76
2023-02-14T17:40:19.349Z,1.78
2023-02-14T17:42:46.803Z,1.74
2023-02-14T17:45:15.651Z,1.77
2023-02-14T17:47:45.102Z,1.69
2023-02-14T17:50:14.475Z,1.63
2023-02-14T17:52:41.989Z,1.61
2023-02-14T17:55:10.169Z,1.52
2023-02-14T17:57:39.050Z,1.55
2023-02-14T18:00:08.676Z,1.46
2023-02-14T18:02:38.926Z,1.42
2023-02-14T18:05:07.553Z,1.42
2023-02-14T18:07:35.565Z,1.45
2023-02-14T18:10:03.183Z,1.42
2023-02-14T18:12:30.654Z,1.41
2023-02-14T18:14:58.166Z,1.33
2023-02-14T18:17:25.647Z,1.29
2023-02-14T18:19:54.472Z,1.26
2023-02-14T18:22:22.043Z,1.25
2023-02-14T18:24:49.490Z,1.17
2023-02-14T18:27:16.976Z,1.22
2023-02-14T18:29:44.468Z,1.19
2023-02-14T18:32:11.955Z,1.19
2023-02-14T18:34:39.463Z,1.19
2023-02-14T18:37:08.263Z,1.19
2023-02-14T18:39:35.798Z,1.05
2023-02-14T18:42:04.428Z,1.08
2023-02-14T18:44:33.323Z,1.09
2023-02-14T18:47:01.963Z,1.16
2023-02-14T18:49:29.965Z,1.04
2023-02-14T18:51:58.679Z,1.04
2023-02-14T18:54:27.513Z,1.07
2023-02-14T18:56:55.162Z,1.07
2023-02-14T18:59:23.388Z,1.05
2023-02-14T19:01:50.874Z,0.93
2023-02-14T19:04:18.344Z,0.95
2023-02-14T19:06:45.846Z,0.77
2023-02-14T19:09:14.940Z,0.76
2023-02-14T19:11:44.039Z,0.28
2023-02-14T19:14:13.223Z,0.77
2023-02-14T19:16:43.639Z,0.75
2023-02-14T19:19:11.521Z,0.83
2023-02-14T19:21:39.286Z,0.96
2023-02-14T19:24:07.954Z,0.91
2023-02-14T19:26:39.912Z,0.61
2023-02-14T19:29:11.873Z,0.95
2023-02-14T19:31:41.809Z,1.03
2023-02-14T19:34:16.708Z,0.98
2023-02-14T19:36:44.182Z,1.02
2023-02-14T19:39:12.361Z,1.00
2023-02-14T19:41:40.617Z,1.05
2023-02-14T19:44:13.560Z,0.63
2023-02-14T19:46:42.753Z,0.65
2023-02-14T19:49:12.885Z,0.92
2023-02-14T19:51:40.798Z,0.78
2023-02-14T19:54:09.627Z,0.60
2023-02-14T19:56:39.255Z,0.81
2023-02-14T19:59:09.021Z,0.34
2023-02-14T20:01:39.979Z,0.07
2023-02-14T20:04:09.922Z,0.08
2023-02-14T20:06:38.674Z,0.28
2023-02-14T20:09:07.260Z,0.20
2023-02-14T20:11:39.212Z,0.32
2023-02-14T20:14:07.884Z,0.38
2023-02-14T20:16:38.160Z,0.49
2023-02-14T20:19:11.820Z,0.42
2023-02-14T20:21:41.633Z,0.75
2023-02-14T20:24:10.539Z,0.24
2023-02-14T20:26:41.480Z,0.38
2023-02-14T20:29:10.682Z,0.09
2023-02-14T20:31:41.859Z,0.29
2023-02-14T20:34:09.559Z,0.32
2023-02-14T20:36:37.741Z,0.63
2023-02-14T20:39:07.027Z,0.35
2023-02-14T20:41:35.701Z,0.53
2023-02-14T20:44:05.120Z,0.11
2023-02-14T20:46:33.015Z,0.57
2023-02-14T20:49:02.353Z,0.61
2023-02-14T20:51:30.127Z,0.25
2023-02-14T20:53:57.598Z,0.19
2023-02-14T20:56:25.672Z,0.33
2023-02-14T20:58:53.200Z,0.21
2023-02-14T21:01:22.546Z,-0.08
2023-02-14T21:03:52.865Z,0.12
2023-02-14T21:06:23.546Z,0.10
2023-02-14T21:08:51.347Z,0.50
2023-02-14T21:11:20.711Z,0.28
2023-02-14T21:13:48.164Z,0.42
2023-02-14T21:16:18.745Z,0.41
2023-02-14T21:18:51.549Z,0.52
2023-02-14T21:21:23.404Z,0.71
2023-02-14T21:23:51.937Z,0.67
2023-02-14T21:26:21.199Z,0.22
2023-02-14T21:28:49.246Z,0.52
2023-02-14T21:31:20.646Z,0.55
2023-02-14T21:33:50.578Z,0.64
2023-02-14T21:36:19.593Z,0.65
2023-02-14T21:38:48.895Z,0.46
2023-02-14T21:41:17.870Z,0.59
2023-02-14T21:43:46.900Z,0.62
2023-02-14T21:46:16.121Z,0.40
2023-02-14T21:49:02.056Z,0.33
2023-02-14T21:51:29.902Z,0.67
2023-02-14T21:54:00.046Z,0.20
2023-02-14T21:56:28.637Z,0.27
2023-02-14T21:58:56.711Z,0.34
2023-02-14T22:01:26.205Z,0.09
2023-02-14T22:03:54.591Z,0.69
2023-02-14T22:06:23.352Z,0.47
2023-02-14T22:08:54.049Z,0.44
2023-02-14T22:11:24.130Z,0.55
2023-02-14T22:13:51.709Z,0.20
2023-02-14T22:16:21.490Z,0.69
2023-02-14T22:18:49.027Z,0.68
2023-02-14T22:21:18.906Z,0.61
2023-02-14T22:23:46.474Z,0.38
2023-02-14T22:26:16.108Z,0.16
2023-02-14T22:28:47.623Z,0.70
2023-02-14T22:31:16.604Z,0.46
2023-02-14T22:33:44.508Z,0.39
2023-02-14T22:36:12.445Z,0.57
2023-02-14T22:38:40.693Z,0.79
2023-02-14T22:41:09.413Z,0.57
2023-02-14T22:43:38.060Z,0.53
2023-02-14T22:46:09.590Z,0.17
2023-02-14T22:48:38.222Z,0.47
2023-02-14T22:51:11.572Z,0.68
2023-02-14T22:53:40.127Z,0.56
2023-02-14T22:56:15.689Z,0.69
2023-02-14T22:58:44.002Z,0.33
2023-02-14T23:01:17.327Z,0.23
2023-02-14T23:03:46.178Z,0.45
2023-02-14T23:06:14.413Z,0.61
2023-02-14T23:08:43.492Z,0.50
2023-02-14T23:11:13.344Z,0.53
2023-02-14T23:13:58.530Z,0.25
2023-02-14T23:16:44.852Z,-0.37
2023-02-14T23:19:31.332Z,0.26
2023-02-14T23:21:59.293Z,0.22
2023-02-14T23:24:26.782Z,0.59
2023-02-14T23:26:55.757Z,0.61
2023-02-14T23:29:23.300Z,-0.10
2023-02-14T23:31:52.374Z,0.16
2023-02-14T23:34:19.898Z,0.27
2023-02-14T23:36:47.844Z,-0.37
2023-02-14T23:39:15.374Z,0.53
2023-02-14T23:41:48.993Z,-0.32
2023-02-14T23:44:19.813Z,-0.05
2023-02-14T23:46:48.319Z,-0.16
2023-02-14T23:49:17.671Z,-0.63
2023-02-14T23:51:46.144Z,-0.26
2023-02-14T23:54:15.125Z,-0.20
2023-02-14T23:56:43.432Z,0.16
2023-02-14T23:59:11.146Z,-0.24
